Time;durP1;ratioP1;P1;durP2;ratioP2;P2;SDS_P1;SDS_P2;PMS_P1;PMS_P2;Temp;Humidity;BMP_temperature;BMP_pressure;BME280_temperature;BME280_humidity;BME280_pressure;Samples;Min_cycle;Max_cycle;Signal;HPM_P1;HPM_P2
2022/02/17 00:00:13;;;;;;;0.27;0.20;;;14.40;99.90;;;;;;5093541;28;20249;-60
2022/02/17 00:02:41;;;;;;;0.00;0.00;;;14.40;99.90;;;;;;5093526;28;20208;-60
2022/02/17 00:05:10;;;;;;;0.13;0.10;;;14.40;99.90;;;;;;5093574;28;20291;-60
2022/02/17 00:07:38;;;;;;;0.13;0.10;;;14.50;99.90;;;;;;5093044;28;20254;-60
2022/02/17 00:10:05;;;;;;;0.10;0.10;;;14.60;99.90;;;;;;5093694;28;20260;-60
2022/02/17 00:12:32;;;;;;;0.23;0.13;;;14.60;99.90;;;;;;5093443;28;20273;-60
2022/02/17 00:14:59;;;;;;;0.27;0.10;;;14.60;99.90;;;;;;5092890;28;20668;-60
2022/02/17 00:17:26;;;;;;;0.20;0.10;;;14.70;99.90;;;;;;5092866;28;20533;-60
2022/02/17 00:19:52;;;;;;;0.10;0.10;;;14.70;99.90;;;;;;5093293;28;20204;-60
2022/02/17 00:22:20;;;;;;;0.20;0.10;;;14.70;99.90;;;;;;5093412;28;20212;-60
2022/02/17 00:24:47;;;;;;;0.10;0.10;;;14.80;99.90;;;;;;5093109;28;20209;-60
2022/02/17 00:27:14;;;;;;;0.37;0.20;;;14.80;99.90;;;;;;5092909;28;20281;-60
2022/02/17 00:29:41;;;;;;;0.07;0.07;;;14.80;99.90;;;;;;5093569;28;20208;-60
2022/02/17 00:32:08;;;;;;;0.13;0.10;;;14.80;99.90;;;;;;5093116;28;20208;-60
2022/02/17 00:34:35;;;;;;;0.13;0.10;;;14.80;99.90;;;;;;5093045;28;20253;-60
2022/02/17 00:37:03;;;;;;;0.27;0.10;;;14.80;99.90;;;;;;5092764;28;20254;-60
2022/02/17 00:39:31;;;;;;;0.10;0.00;;;14.80;99.90;;;;;;5092941;28;20679;-60
2022/02/17 00:41:58;;;;;;;0.17;0.00;;;14.80;99.90;;;;;;5093022;28;20212;-60
2022/02/17 00:44:25;;;;;;;0.10;0.10;;;14.90;99.90;;;;;;5092591;28;20200;-60
2022/02/17 00:46:55;;;;;;;0.00;0.00;;;14.90;99.90;;;;;;5092511;28;20208;-60
2022/02/17 00:49:22;;;;;;;0.10;0.00;;;14.90;99.90;;;;;;5092689;28;20231;-60
2022/02/17 00:51:49;;;;;;;0.30;0.10;;;14.90;99.90;;;;;;5092719;28;20629;-60
2022/02/17 00:54:15;;;;;;;0.00;0.00;;;14.90;99.90;;;;;;5092549;28;20257;-60
2022/02/17 00:56:44;;;;;;;0.10;0.10;;;14.90;99.90;;;;;;5092569;28;20212;-60
2022/02/17 00:59:11;;;;;;;0.20;0.10;;;15.00;99.90;;;;;;5092256;28;20265;-61
2022/02/17 01:01:38;;;;;;;0.50;0.10;;;15.00;99.90;;;;;;5092697;28;20208;-61
2022/02/17 01:04:04;;;;;;;0.60;0.20;;;14.90;99.90;;;;;;5092260;28;20261;-61
2022/02/17 01:06:32;;;;;;;0.33;0.10;;;14.90;99.90;;;;;;5092349;28;20265;-61
2022/02/17 01:08:59;;;;;;;0.10;0.00;;;14.90;99.90;;;;;;5091911;28;20232;-61
2022/02/17 01:11:26;;;;;;;0.00;0.00;;;14.90;99.90;;;;;;5092469;28;20208;-60
2022/02/17 01:13:54;;;;;;;0.10;0.10;;;14.80;99.90;;;;;;5092408;28;20204;-60
2022/02/17 01:16:20;;;;;;;0.10;0.10;;;14.80;99.90;;;;;;5092362;28;20212;-60
2022/02/17 01:18:47;;;;;;;2.63;0.30;;;14.70;99.90;;;;;;5092107;28;20228;-60
2022/02/17 01:21:14;;;;;;;0.50;0.23;;;14.70;99.90;;;;;;5092123;28;20284;-60
2022/02/17 01:23:40;;;;;;;0.20;0.20;;;14.80;99.90;;;;;;5092440;28;20361;-60
2022/02/17 01:26:07;;;;;;;0.93;0.20;;;14.80;99.90;;;;;;5091317;28;20204;-60
2022/02/17 01:28:36;;;;;;;0.10;0.10;;;14.70;99.90;;;;;;5091975;28;20232;-60
2022/02/17 01:31:04;;;;;;;0.20;0.10;;;14.70;99.90;;;;;;5092245;28;20660;-60
2022/02/17 01:33:30;;;;;;;0.10;0.10;;;14.70;99.90;;;;;;5092189;28;20208;-61
2022/02/17 01:35:57;;;;;;;0.00;0.00;;;14.70;99.90;;;;;;5091953;28;20207;-60
2022/02/17 01:38:24;;;;;;;0.00;0.00;;;14.70;99.90;;;;;;5091714;28;20227;-60
2022/02/17 01:40:51;;;;;;;0.00;0.00;;;14.70;99.90;;;;;;5092326;28;20273;-60
2022/02/17 01:43:18;;;;;;;1.70;0.70;;;14.70;99.90;;;;;;5092201;28;20236;-60
2022/02/17 01:45:45;;;;;;;0.73;0.10;;;14.70;99.90;;;;;;5092080;28;20616;-61
2022/02/17 01:48:13;;;;;;;0.77;0.10;;;14.70;99.90;;;;;;5091699;28;20224;-61
2022/02/17 01:50:41;;;;;;;0.20;0.10;;;14.70;99.90;;;;;;5092003;28;20477;-60
2022/02/17 01:53:08;;;;;;;0.20;0.10;;;14.60;99.90;;;;;;5092105;28;20246;-60
2022/02/17 01:55:36;;;;;;;2.00;0.17;;;14.60;99.90;;;;;;5092120;28;20261;-60
2022/02/17 01:58:02;;;;;;;1.20;0.00;;;14.60;99.90;;;;;;5091757;28;20243;-59
2022/02/17 02:00:29;;;;;;;0.10;0.10;;;14.50;99.90;;;;;;5091896;28;20204;-59
2022/02/17 02:02:56;;;;;;;0.00;0.00;;;14.50;99.90;;;;;;5091931;28;20211;-59
2022/02/17 02:05:24;;;;;;;0.80;0.30;;;14.40;99.90;;;;;;5091706;28;20212;-60
2022/02/17 02:07:51;;;;;;;0.00;0.00;;;14.40;99.90;;;;;;5091386;28;20232;-60
2022/02/17 02:10:18;;;;;;;0.63;0.17;;;14.40;99.90;;;;;;5092127;28;20261;-61
2022/02/17 02:12:45;;;;;;;0.00;0.00;;;14.30;99.90;;;;;;5092167;28;20208;-60
2022/02/17 02:15:12;;;;;;;0.20;0.10;;;14.30;99.90;;;;;;5092055;28;20211;-59
2022/02/17 02:17:40;;;;;;;0.10;0.10;;;14.30;99.90;;;;;;5091671;28;20227;-59
2022/02/17 02:20:08;;;;;;;0.00;0.00;;;14.30;99.90;;;;;;5091727;28;20641;-60
2022/02/17 02:22:37;;;;;;;0.93;0.50;;;14.20;99.90;;;;;;5091682;28;20205;-60
2022/02/17 02:25:04;;;;;;;1.43;0.33;;;14.20;99.90;;;;;;5092112;28;20205;-60
2022/02/17 02:27:31;;;;;;;0.00;0.00;;;14.10;99.90;;;;;;5091770;28;20320;-60
2022/02/17 02:29:58;;;;;;;0.50;0.10;;;14.10;99.90;;;;;;5091668;28;20213;-60
2022/02/17 02:32:25;;;;;;;0.10;0.10;;;14.00;99.90;;;;;;5091622;28;20257;-60
2022/02/17 02:34:51;;;;;;;0.33;0.13;;;14.00;99.90;;;;;;5091684;28;20215;-60
2022/02/17 02:37:18;;;;;;;0.30;0.10;;;14.00;99.90;;;;;;5093922;28;20231;-60
2022/02/17 02:39:47;;;;;;;2.00;0.10;;;14.00;99.90;;;;;;5095750;28;20242;-60
2022/02/17 02:42:14;;;;;;;0.30;0.10;;;14.10;99.90;;;;;;5095246;28;20204;-60
2022/02/17 02:44:40;;;;;;;1.43;0.17;;;14.00;99.90;;;;;;5095289;28;20204;-60
2022/02/17 02:47:08;;;;;;;0.17;0.10;;;14.00;99.90;;;;;;5094904;28;20277;-60
2022/02/17 02:49:36;;;;;;;0.00;0.00;;;13.90;99.90;;;;;;5094925;28;20224;-60
2022/02/17 02:52:04;;;;;;;0.20;0.13;;;13.90;99.90;;;;;;5095264;28;20341;-60
2022/02/17 02:54:31;;;;;;;1.17;0.30;;;13.80;99.90;;;;;;5095449;28;20215;-60
2022/02/17 02:56:59;;;;;;;0.00;0.00;;;13.80;99.90;;;;;;5094909;28;20232;-60
2022/02/17 02:59:25;;;;;;;1.43;0.10;;;13.60;99.90;;;;;;5094647;28;20200;-60
2022/02/17 03:01:52;;;;;;;0.10;0.10;;;13.60;99.90;;;;;;5094700;28;20200;-60
2022/02/17 03:04:19;;;;;;;0.20;0.10;;;13.50;99.90;;;;;;5094893;28;20208;-60
2022/02/17 03:06:45;;;;;;;1.90;0.10;;;13.70;99.90;;;;;;5094571;28;20200;-60
2022/02/17 03:09:12;;;;;;;0.00;0.00;;;13.70;99.90;;;;;;5129079;22;20730;-60
2022/02/17 03:11:39;;;;;;;0.70;0.20;;;13.80;99.90;;;;;;5113480;28;20228;-60
2022/02/17 03:14:07;;;;;;;1.53;0.10;;;13.80;99.90;;;;;;5115221;28;20261;-59
2022/02/17 03:16:34;;;;;;;0.30;0.10;;;13.80;99.90;;;;;;5115027;28;20682;-60
2022/02/17 03:19:01;;;;;;;0.60;0.07;;;13.80;99.90;;;;;;5114698;28;20635;-60
2022/02/17 03:21:27;;;;;;;0.10;0.07;;;13.70;99.90;;;;;;5115197;28;20628;-60
2022/02/17 03:23:54;;;;;;;1.10;0.10;;;13.60;99.90;;;;;;5114940;28;20634;-60
2022/02/17 03:26:21;;;;;;;0.20;0.10;;;13.60;99.90;;;;;;5114827;28;20589;-59
2022/02/17 03:28:47;;;;;;;0.10;0.10;;;13.50;99.90;;;;;;5114414;28;20572;-60
2022/02/17 03:31:15;;;;;;;0.00;0.00;;;13.50;99.90;;;;;;5114798;28;20572;-60
2022/02/17 03:33:42;;;;;;;0.00;0.00;;;13.40;99.90;;;;;;5114961;28;20336;-59
2022/02/17 03:36:09;;;;;;;0.37;0.20;;;13.50;99.90;;;;;;5115041;28;20239;-59
2022/02/17 03:38:36;;;;;;;0.30;0.10;;;13.50;99.90;;;;;;5114584;28;20265;-59
2022/02/17 03:41:03;;;;;;;0.10;0.10;;;13.50;99.90;;;;;;5114683;28;20726;-60
2022/02/17 03:43:29;;;;;;;0.10;0.10;;;13.50;99.90;;;;;;5114919;28;20580;-59
2022/02/17 03:45:56;;;;;;;2.37;0.10;;;13.50;99.90;;;;;;5114680;28;20199;-59
2022/02/17 03:48:24;;;;;;;0.10;0.10;;;13.50;99.90;;;;;;5113712;28;20219;-60
2022/02/17 03:50:51;;;;;;;0.00;0.00;;;13.50;99.90;;;;;;5114835;28;20207;-59
2022/02/17 03:53:17;;;;;;;0.17;0.10;;;13.60;99.90;;;;;;5114436;28;20203;-60
2022/02/17 03:55:44;;;;;;;0.30;0.10;;;13.50;99.90;;;;;;5114387;28;20215;-60
2022/02/17 03:59:00;;;;;;;0.23;0.07;;;13.50;99.90;;;;;;5114152;28;20230;-60
2022/02/17 04:00:57;;;;;;;0.10;0.07;;;13.60;99.90;;;;;;5114239;28;20628;-60
2022/02/17 04:03:25;;;;;;;0.13;0.00;;;13.50;99.90;;;;;;5114354;28;20256;-60
2022/02/17 04:05:52;;;;;;;0.40;0.10;;;13.50;99.90;;;;;;5114014;28;20261;-59
2022/02/17 04:08:19;;;;;;;0.10;0.10;;;13.60;99.90;;;;;;5113899;28;20235;-60
2022/02/17 04:10:45;;;;;;;0.00;0.00;;;13.60;99.90;;;;;;5114837;28;20241;-61
2022/02/17 04:13:12;;;;;;;0.07;0.00;;;13.50;99.90;;;;;;5114013;28;20675;-60
2022/02/17 04:15:39;;;;;;;0.67;0.03;;;13.60;99.90;;;;;;5114215;28;20203;-60
2022/02/17 04:18:06;;;;;;;0.00;0.00;;;13.70;99.90;;;;;;5113621;28;20252;-59
2022/02/17 04:20:34;;;;;;;0.10;0.10;;;13.70;99.90;;;;;;5113797;28;20261;-60
2022/02/17 04:23:01;;;;;;;0.00;0.00;;;13.80;99.90;;;;;;5113826;28;20200;-59
2022/02/17 04:25:27;;;;;;;0.20;0.00;;;13.80;99.90;;;;;;5114224;28;20212;-60
2022/02/17 04:27:54;;;;;;;0.00;0.00;;;13.80;99.90;;;;;;5113496;28;20227;-59
2022/02/17 04:30:21;;;;;;;0.17;0.17;;;13.80;99.90;;;;;;5114215;28;20203;-60
2022/02/17 04:32:48;;;;;;;0.40;0.13;;;13.70;99.90;;;;;;5113856;28;20206;-60
2022/02/17 04:35:14;;;;;;;0.10;0.10;;;13.70;99.90;;;;;;5113583;28;20742;-60
2022/02/17 04:37:42;;;;;;;0.63;0.30;;;13.70;99.90;;;;;;5113052;28;20228;-60
2022/02/17 04:40:10;;;;;;;0.00;0.00;;;13.80;99.90;;;;;;5114053;28;20207;-60
2022/02/17 04:42:35;;;;;;;0.60;0.10;;;13.80;99.90;;;;;;5113406;28;20671;-60
2022/02/17 04:45:02;;;;;;;0.23;0.10;;;13.80;99.90;;;;;;5113732;28;20257;-59
2022/02/17 04:47:29;;;;;;;0.00;0.00;;;13.90;99.90;;;;;;5113458;28;20239;-60
2022/02/17 04:49:55;;;;;;;0.10;0.10;;;13.90;99.90;;;;;;5113283;28;20280;-60
2022/02/17 04:52:22;;;;;;;0.17;0.10;;;13.70;99.90;;;;;;5113840;28;20203;-59
2022/02/17 04:54:50;;;;;;;0.77;0.40;;;13.60;99.90;;;;;;5114205;28;20207;-60
2022/02/17 04:57:17;;;;;;;0.30;0.10;;;13.60;99.90;;;;;;5113451;28;20207;-60
2022/02/17 04:59:43;;;;;;;0.50;0.20;;;13.50;99.90;;;;;;5112511;28;20719;-59
2022/02/17 05:02:11;;;;;;;0.87;0.13;;;13.50;99.90;;;;;;5113066;28;20693;-59
2022/02/17 05:04:38;;;;;;;0.13;0.13;;;13.60;99.90;;;;;;5113627;28;20629;-59
2022/02/17 05:07:05;;;;;;;0.00;0.00;;;13.70;99.90;;;;;;5113161;28;20219;-58
2022/02/17 05:09:31;;;;;;;0.70;0.10;;;13.70;99.90;;;;;;5113176;28;20273;-59
2022/02/17 05:11:59;;;;;;;0.63;0.10;;;13.70;99.90;;;;;;5113496;28;20245;-58
2022/02/17 05:14:26;;;;;;;2.40;0.20;;;13.70;99.90;;;;;;5113298;28;20253;-58
2022/02/17 05:16:53;;;;;;;1.13;0.20;;;13.60;99.90;;;;;;5113536;28;20252;-58
2022/02/17 05:19:19;;;;;;;2.50;0.30;;;13.60;99.90;;;;;;5112891;28;20224;-59
2022/02/17 05:21:46;;;;;;;1.00;0.20;;;13.60;99.90;;;;;;5113312;28;20199;-58
2022/02/17 05:24:13;;;;;;;1.23;0.30;;;13.50;99.90;;;;;;5113076;28;20199;-58
2022/02/17 05:26:40;;;;;;;0.30;0.20;;;13.50;99.90;;;;;;5113134;28;20256;-58
2022/02/17 05:29:08;;;;;;;0.10;0.10;;;13.50;99.90;;;;;;5112806;28;20223;-59
2022/02/17 05:31:34;;;;;;;0.20;0.10;;;13.50;99.90;;;;;;5112730;28;20624;-58
2022/02/17 05:34:01;;;;;;;0.37;0.13;;;13.40;99.90;;;;;;5112710;28;20697;-58
2022/02/17 05:36:28;;;;;;;0.67;0.30;;;13.40;99.90;;;;;;5113046;28;20199;-58
2022/02/17 05:38:54;;;;;;;0.93;0.10;;;13.40;99.90;;;;;;5112691;28;20756;-58
2022/02/17 05:41:21;;;;;;;1.33;0.37;;;13.20;99.90;;;;;;5113002;28;20587;-58
2022/02/17 05:43:48;;;;;;;1.00;0.40;;;13.20;99.90;;;;;;5112615;28;20211;-59
2022/02/17 05:46:16;;;;;;;2.43;0.80;;;13.10;99.90;;;;;;5112603;28;20638;-58
2022/02/17 05:48:43;;;;;;;3.97;1.27;;;13.00;99.90;;;;;;5112155;28;20231;-58
2022/02/17 05:51:10;;;;;;;1.67;0.70;;;12.80;99.90;;;;;;5112858;28;20207;-58
2022/02/17 05:53:36;;;;;;;3.03;0.60;;;12.50;99.90;;;;;;5112656;28;20296;-58
2022/02/17 05:56:03;;;;;;;3.00;0.87;;;12.30;99.90;;;;;;5112521;28;20207;-58
2022/02/17 05:58:30;;;;;;;2.97;0.77;;;12.10;99.90;;;;;;5112043;28;20250;-58
2022/02/17 06:00:57;;;;;;;3.33;0.80;;;12.00;99.90;;;;;;5112211;28;20211;-58
2022/02/17 06:03:25;;;;;;;6.37;1.40;;;12.00;99.90;;;;;;5112445;28;20215;-58
2022/02/17 06:05:51;;;;;;;5.33;1.20;;;11.90;99.90;;;;;;5112980;28;20203;-58
2022/02/17 06:08:19;;;;;;;3.17;1.23;;;11.80;99.90;;;;;;5112163;28;20231;-58
2022/02/17 06:10:45;;;;;;;7.27;1.53;;;11.60;99.90;;;;;;5112510;28;20242;-58
2022/02/17 06:13:12;;;;;;;5.27;1.47;;;11.50;99.90;;;;;;5116577;28;20666;-59
2022/02/17 06:15:39;;;;;;;8.57;1.63;;;11.40;99.90;;;;;;5116013;28;20211;-62
2022/02/17 06:18:05;;;;;;;6.10;1.43;;;11.40;99.90;;;;;;5116471;28;20231;-59
2022/02/17 06:20:34;;;;;;;4.93;1.40;;;11.40;99.90;;;;;;5116420;28;20226;-59
2022/02/17 06:23:01;;;;;;;8.80;1.87;;;11.50;99.90;;;;;;5116361;28;20663;-59
2022/02/17 06:25:28;;;;;;;8.40;2.33;;;11.60;99.90;;;;;;5116216;28;20207;-59
2022/02/17 06:27:55;;;;;;;7.33;2.00;;;11.70;99.90;;;;;;5115645;28;20624;-59
2022/02/17 06:30:23;;;;;;;7.00;1.70;;;11.80;99.90;;;;;;5115821;28;20223;-59
2022/02/17 06:32:51;;;;;;;7.70;1.93;;;11.80;99.90;;;;;;5115980;28;20716;-59
2022/02/17 06:35:19;;;;;;;7.83;2.17;;;11.90;99.90;;;;;;5116195;28;20204;-59
2022/02/17 06:37:48;;;;;;;7.20;1.70;;;11.80;99.90;;;;;;5115542;28;20793;-59
2022/02/17 06:40:15;;;;;;;7.23;1.63;;;11.70;99.90;;;;;;5116066;28;20218;-59
2022/02/17 06:42:42;;;;;;;8.90;1.80;;;11.70;99.90;;;;;;5115647;28;20203;-59
2022/02/17 06:45:09;;;;;;;4.93;1.63;;;11.70;99.90;;;;;;5115623;28;20671;-59
2022/02/17 06:47:36;;;;;;;5.80;2.17;;;11.70;99.90;;;;;;5115381;28;20223;-59
2022/02/17 06:50:03;;;;;;;5.40;1.60;;;11.80;99.90;;;;;;5115713;28;20223;-59
2022/02/17 06:52:30;;;;;;;3.80;1.40;;;11.90;99.90;;;;;;5115797;28;20256;-60
2022/02/17 06:54:58;;;;;;;6.27;2.33;;;12.00;99.90;;;;;;5115578;28;20207;-59
2022/02/17 06:57:25;;;;;;;8.40;3.40;;;12.00;99.90;;;;;;5115347;27;20310;-59
2022/02/17 06:59:53;;;;;;;10.77;2.83;;;12.10;99.90;;;;;;5115387;28;20200;-60
2022/02/17 07:02:23;;;;;;;6.87;1.90;;;12.10;99.90;;;;;;5115531;28;20212;-59
2022/02/17 07:04:50;;;;;;;7.40;2.50;;;12.20;99.90;;;;;;5115603;28;20208;-58
2022/02/17 07:07:17;;;;;;;6.67;1.70;;;12.20;99.90;;;;;;5115411;28;20203;-58
2022/02/17 07:09:43;;;;;;;8.30;1.67;;;12.30;99.90;;;;;;5115158;28;20265;-59
2022/02/17 07:12:13;;;;;;;6.83;1.70;;;12.40;99.90;;;;;;5115373;28;20691;-57
2022/02/17 07:14:39;;;;;;;7.20;2.40;;;12.50;99.90;;;;;;5115426;28;20206;-61
2022/02/17 07:17:07;;;;;;;8.17;2.00;;;12.60;99.90;;;;;;5115356;28;20207;-64
2022/02/17 07:19:34;;;;;;;7.57;2.23;;;12.70;99.90;;;;;;5114979;28;20682;-60
2022/02/17 07:22:00;;;;;;;5.23;1.77;;;12.70;99.90;;;;;;5115493;28;20261;-61
2022/02/17 07:24:27;;;;;;;10.53;2.77;;;12.80;99.90;;;;;;5113566;28;20208;-60
2022/02/17 07:26:54;;;;;;;8.43;3.10;;;13.00;99.90;;;;;;5114612;28;20667;-61
2022/02/17 07:29:22;;;;;;;6.73;1.87;;;13.40;99.90;;;;;;5115021;28;20227;-61
2022/02/17 07:31:52;;;;;;;8.43;2.00;;;13.70;99.90;;;;;;5115111;28;20663;-61
2022/02/17 07:34:19;;;;;;;7.53;1.90;;;13.90;99.90;;;;;;5114876;28;20203;-62
2022/02/17 07:36:46;;;;;;;6.03;1.77;;;14.00;99.90;;;;;;5114943;28;20299;-62
2022/02/17 07:39:13;;;;;;;7.50;1.90;;;14.20;99.90;;;;;;5114384;28;20642;-61
2022/02/17 07:41:40;;;;;;;8.30;2.40;;;14.20;99.90;;;;;;5114184;28;20208;-62
2022/02/17 07:44:07;;;;;;;7.57;2.27;;;14.20;99.90;;;;;;5114620;28;20215;-62
2022/02/17 07:46:36;;;;;;;7.47;2.17;;;14.30;99.90;;;;;;5114607;27;20203;-62
2022/02/17 07:49:03;;;;;;;8.40;2.30;;;14.40;99.90;;;;;;5114579;28;20226;-61
2022/02/17 07:51:30;;;;;;;8.17;2.83;;;14.40;99.90;;;;;;5114519;28;20203;-62
2022/02/17 07:53:57;;;;;;;6.23;2.40;;;14.50;99.90;;;;;;5114694;28;20589;-61
2022/02/17 07:56:24;;;;;;;7.77;1.90;;;14.60;99.90;;;;;;5114561;28;20260;-62
2022/02/17 07:58:51;;;;;;;8.27;2.17;;;14.60;99.90;;;;;;5114514;28;20227;-62
2022/02/17 08:01:18;;;;;;;7.53;2.03;;;14.50;99.90;;;;;;5114151;28;20203;-63
2022/02/17 08:03:46;;;;;;;11.20;2.23;;;14.50;99.90;;;;;;5114314;28;20238;-63
2022/02/17 08:06:13;;;;;;;8.33;1.83;;;14.40;99.90;;;;;;5114129;28;20344;-63
2022/02/17 08:08:42;;;;;;;8.67;2.13;;;14.40;99.90;;;;;;5113612;28;20227;-62
2022/02/17 08:11:08;;;;;;;8.70;2.30;;;14.30;99.90;;;;;;5114303;28;20227;-62
2022/02/17 08:13:35;;;;;;;7.90;2.20;;;14.30;99.90;;;;;;5113598;28;20204;-62
2022/02/17 08:16:02;;;;;;;9.17;1.97;;;14.40;99.90;;;;;;5113956;28;20227;-62
2022/02/17 08:18:28;;;;;;;8.53;1.90;;;14.50;99.90;;;;;;5113690;28;20224;-62
2022/02/17 08:20:56;;;;;;;6.47;2.23;;;14.50;99.90;;;;;;5114095;28;20203;-62
2022/02/17 08:23:23;;;;;;;9.23;2.00;;;14.60;99.90;;;;;;5114084;28;20203;-62
2022/02/17 08:25:50;;;;;;;6.73;2.13;;;14.70;99.90;;;;;;5113715;28;20203;-62
2022/02/17 08:28:17;;;;;;;7.70;1.87;;;14.80;99.90;;;;;;5113508;28;20643;-63
2022/02/17 08:30:43;;;;;;;11.07;2.33;;;14.70;99.90;;;;;;5113833;28;20216;-63
2022/02/17 08:33:10;;;;;;;7.00;2.30;;;14.80;99.90;;;;;;5114163;28;20218;-62
2022/02/17 08:35:37;;;;;;;6.10;2.00;;;14.90;99.90;;;;;;5114103;28;20571;-62
2022/02/17 08:38:05;;;;;;;7.80;2.00;;;14.90;99.90;;;;;;5114247;28;20227;-62
2022/02/17 08:40:32;;;;;;;10.60;2.40;;;14.90;99.90;;;;;;5114187;28;20207;-62
2022/02/17 08:43:08;;;;;;;5.97;1.73;;;15.00;99.90;;;;;;5114449;28;20692;-63
2022/02/17 08:45:36;;;;;;;7.40;2.20;;;15.00;99.90;;;;;;5114457;28;20211;-62
2022/02/17 08:48:03;;;;;;;11.37;2.43;;;14.90;99.90;;;;;;5113431;28;20630;-62
2022/02/17 08:50:29;;;;;;;10.60;2.93;;;14.80;99.90;;;;;;5113567;28;20219;-64
2022/02/17 08:52:56;;;;;;;7.57;2.40;;;14.70;99.90;;;;;;5112746;28;20210;-63
2022/02/17 08:55:24;;;;;;;6.53;2.20;;;14.60;99.90;;;;;;5112474;28;20207;-62
2022/02/17 08:57:51;;;;;;;10.07;2.17;;;14.50;99.90;;;;;;5112188;28;20600;-63
2022/02/17 09:00:18;;;;;;;11.27;3.00;;;14.50;99.90;;;;;;5112467;28;20686;-64
2022/02/17 09:02:45;;;;;;;11.67;3.20;;;14.40;99.90;;;;;;5112489;28;20234;-62
2022/02/17 09:05:12;;;;;;;11.27;2.67;;;14.50;99.90;;;;;;5112994;28;20203;-63
2022/02/17 09:07:39;;;;;;;10.87;2.87;;;14.50;99.90;;;;;;5123653;22;20238;-60
2022/02/17 09:10:07;;;;;;;11.63;2.90;;;14.60;99.90;;;;;;5086430;28;20225;-58
2022/02/17 09:12:37;;;;;;;11.40;2.97;;;14.70;99.90;;;;;;5089330;28;20200;-58
2022/02/17 09:15:05;;;;;;;6.87;2.43;;;14.70;99.90;;;;;;5092196;28;20744;-58
2022/02/17 09:17:31;;;;;;;10.57;3.00;;;14.50;99.90;;;;;;5092455;28;20245;-58
2022/02/17 09:19:58;;;;;;;15.87;3.87;;;14.30;99.90;;;;;;5092191;28;20257;-58
2022/02/17 09:22:25;;;;;;;10.73;2.73;;;14.20;99.90;;;;;;5091647;28;20216;-59
2022/02/17 09:24:52;;;;;;;10.90;2.90;;;14.20;99.90;;;;;;5091114;28;20305;-59
2022/02/17 09:27:19;;;;;;;10.90;2.87;;;14.30;99.90;;;;;;5090755;28;20211;-58
2022/02/17 09:29:47;;;;;;;13.13;3.37;;;14.30;99.90;;;;;;5090977;28;20285;-59
2022/02/17 09:32:13;;;;;;;12.10;3.20;;;14.40;99.90;;;;;;5091975;28;20208;-59
2022/02/17 09:34:41;;;;;;;11.17;3.03;;;14.40;99.90;;;;;;5090990;28;20201;-59
2022/02/17 09:37:08;;;;;;;13.33;2.97;;;14.40;99.90;;;;;;5091279;28;20231;-58
2022/02/17 09:39:36;;;;;;;12.40;3.23;;;14.30;99.90;;;;;;5090770;28;20224;-59
2022/02/17 09:42:05;;;;;;;14.20;3.40;;;14.30;99.90;;;;;;5090960;28;20221;-58
2022/02/17 09:44:32;;;;;;;13.03;3.90;;;14.30;99.90;;;;;;5091294;28;20227;-59
2022/02/17 09:47:00;;;;;;;13.30;3.23;;;14.20;99.90;;;;;;5092795;28;20215;-59
2022/02/17 09:49:30;;;;;;;11.60;3.50;;;14.20;99.90;;;;;;5095470;28;20285;-58
2022/02/17 09:51:57;;;;;;;11.48;3.70;;;14.30;99.90;;;;;;5081003;28;20503;-60
2022/02/17 09:54:24;;;;;;;14.63;3.10;;;14.50;99.90;;;;;;5074196;28;20205;-60
2022/02/17 09:56:51;;;;;;;10.17;3.97;;;14.60;99.90;;;;;;5075749;28;20212;-60
2022/02/17 09:59:18;;;;;;;17.50;3.97;;;14.30;99.90;;;;;;5074799;28;20233;-61
2022/02/17 10:01:56;;;;;;;10.13;3.03;;;13.90;99.90;;;;;;5075330;28;20196;-61
2022/02/17 10:04:25;;;;;;;12.93;3.67;;;13.60;99.90;;;;;;5075485;28;20663;-65
2022/02/17 10:06:53;;;;;;;16.73;3.27;;;13.50;99.90;;;;;;5075226;28;20236;-61
2022/02/17 10:09:22;;;;;;;11.90;3.47;;;13.60;99.90;;;;;;5074223;28;20655;-62
2022/02/17 10:11:53;;;;;;;14.47;3.47;;;13.70;99.90;;;;;;5074648;28;20224;-63
2022/02/17 10:14:20;;;;;;;16.97;3.83;;;13.70;99.90;;;;;;5075017;28;20205;-63
2022/02/17 10:16:52;;;;;;;22.83;3.97;;;13.60;99.90;;;;;;5074491;28;20283;-61
2022/02/17 10:19:18;;;;;;;15.10;3.40;;;13.50;99.90;;;;;;5074322;28;20232;-62
2022/02/17 10:21:46;;;;;;;19.87;4.07;;;13.50;99.90;;;;;;5078187;28;20208;-63
2022/02/17 10:24:32;;;;;;;14.47;3.50;;;13.50;99.90;;;;;;5082872;28;20200;-60
2022/02/17 10:27:04;;;;;;;14.93;3.53;;;13.50;99.90;;;;;;5087760;28;20261;-64
2022/02/17 10:29:31;;;;;;;15.83;4.23;;;13.30;99.90;;;;;;5074326;28;20306;-65
2022/02/17 10:32:10;;;;;;;14.67;3.43;;;13.20;99.90;;;;;;5074492;28;20221;-61
2022/02/17 10:34:37;;;;;;;14.80;4.07;;;13.20;99.90;;;;;;5081603;28;20207;-61
2022/02/17 10:37:06;;;;;;;14.27;3.63;;;13.20;99.90;;;;;;5095058;28;20261;-61
2022/02/17 10:39:42;;;;;;;15.03;3.47;;;13.40;99.90;;;;;;5094550;28;20228;-61
2022/02/17 10:42:09;;;;;;;12.53;4.07;;;13.50;99.90;;;;;;5094861;28;20204;-61
2022/02/17 10:44:38;;;;;;;13.23;3.30;;;13.80;99.90;;;;;;5094019;28;20652;-61
2022/02/17 10:47:12;;;;;;;13.63;2.73;;;14.00;99.90;;;;;;5094009;28;20269;-61
2022/02/17 10:49:43;;;;;;;18.27;3.50;;;14.10;99.90;;;;;;5093965;28;20714;-61
2022/02/17 10:52:11;;;;;;;13.80;3.70;;;14.10;99.90;;;;;;5094402;28;20376;-61
2022/02/17 10:54:38;;;;;;;15.87;3.67;;;14.00;99.90;;;;;;5092901;28;20220;-61
2022/02/17 10:57:05;;;;;;;13.57;2.97;;;13.90;99.90;;;;;;5093584;28;20219;-61
2022/02/17 11:02:21;;;;;;;9.63;2.60;;;13.60;99.90;;;;;;5093841;28;20199;-61
2022/02/17 11:04:48;;;;;;;12.03;2.67;;;13.50;99.90;;;;;;5094071;28;20208;-60
2022/02/17 11:07:17;;;;;;;15.57;3.20;;;13.50;99.90;;;;;;5094217;28;20618;-60
2022/02/17 11:09:45;;;;;;;11.77;3.23;;;13.50;99.90;;;;;;5094114;28;20232;-60
2022/02/17 11:12:14;;;;;;;16.87;3.33;;;13.50;99.90;;;;;;5094043;28;20683;-61
2022/02/17 11:14:42;;;;;;;10.90;3.00;;;13.60;99.90;;;;;;5094707;28;20208;-61
2022/02/17 11:17:11;;;;;;;14.00;3.63;;;13.60;99.90;;;;;;5094579;28;20253;-61
2022/02/17 11:19:38;;;;;;;14.33;3.30;;;13.70;99.90;;;;;;5094717;28;20223;-61
2022/02/17 11:22:06;;;;;;;12.23;3.40;;;13.80;99.90;;;;;;5094457;28;20254;-61
2022/02/17 11:24:48;;;;;;;12.93;3.10;;;13.80;99.90;;;;;;5094301;28;20216;-60
2022/02/17 11:27:15;;;;;;;12.73;3.90;;;13.80;99.90;;;;;;5094109;28;20235;-61
2022/02/17 11:29:43;;;;;;;12.17;3.73;;;13.70;99.90;;;;;;5093776;28;20307;-60
2022/02/17 11:32:14;;;;;;;6.00;2.47;;;13.70;99.90;;;;;;5094201;28;20328;-60
2022/02/17 11:34:44;;;;;;;7.90;2.30;;;13.80;99.90;;;;;;5094095;28;20192;-61
2022/02/17 11:37:47;;;;;;;12.57;2.87;;;14.00;99.90;;;;;;5094133;28;20239;-60
2022/02/17 11:40:17;;;;;;;12.90;3.80;;;14.00;99.90;;;;;;5093697;28;20203;-62
2022/02/17 11:42:46;;;;;;;11.67;2.90;;;14.20;99.90;;;;;;5093092;28;20211;-60
2022/02/17 11:45:16;;;;;;;10.33;2.77;;;14.20;99.40;;;;;;5093607;28;20236;-61
2022/02/17 11:48:05;;;;;;;12.73;2.93;;;13.90;99.20;;;;;;5093382;28;20232;-60
2022/02/17 11:50:34;;;;;;;12.03;2.47;;;13.80;99.60;;;;;;5093025;28;20208;-60
2022/02/17 11:53:27;;;;;;;13.90;3.50;;;13.70;99.90;;;;;;5092438;28;20686;-60
2022/02/17 11:56:47;;;;;;;10.57;2.90;;;13.80;99.90;;;;;;5093199;28;20609;-61
2022/02/17 11:59:28;;;;;;;11.67;3.50;;;13.80;99.00;;;;;;5092980;28;20269;-60
2022/02/17 12:01:57;;;;;;;14.93;3.20;;;13.70;99.30;;;;;;5093508;28;20580;-60
2022/02/17 12:04:26;;;;;;;9.23;3.23;;;13.70;99.40;;;;;;5093458;28;20236;-61
2022/02/17 12:06:56;;;;;;;12.90;3.57;;;13.80;99.30;;;;;;5093330;28;20204;-60
2022/02/17 12:09:35;;;;;;;12.97;3.20;;;13.90;98.70;;;;;;5092521;28;20772;-60
2022/02/17 12:12:35;;;;;;;8.93;2.70;;;14.00;98.70;;;;;;5093098;28;20228;-61
2022/02/17 12:15:05;;;;;;;12.07;2.70;;;14.20;97.80;;;;;;5092986;28;20291;-60
2022/02/17 12:17:34;;;;;;;12.40;3.00;;;14.40;97.50;;;;;;5092870;28;20261;-60
2022/02/17 12:20:05;;;;;;;10.00;3.07;;;14.50;97.30;;;;;;5092629;28;20668;-60
2022/02/17 12:22:32;;;;;;;8.53;2.40;;;14.50;96.90;;;;;;5092734;28;20207;-60
2022/02/17 12:25:24;;;;;;;7.67;2.33;;;14.50;95.80;;;;;;5093088;28;20592;-61
2022/02/17 12:27:55;;;;;;;11.27;2.47;;;14.60;96.30;;;;;;5068915;28;20224;-60
2022/02/17 12:30:34;;;;;;;9.97;2.30;;;14.70;95.60;;;;;;5092729;28;20212;-61
2022/02/17 12:33:16;;;;;;;7.60;2.30;;;14.60;94.90;;;;;;5093081;28;20684;-61
2022/02/17 12:35:51;;;;;;;9.10;2.40;;;14.50;95.50;;;;;;5092964;28;20729;-61
2022/02/17 12:38:21;;;;;;;7.27;2.80;;;14.60;95.90;;;;;;5092766;28;20473;-60
2022/02/17 12:40:48;;;;;;;8.87;2.50;;;14.70;95.30;;;;;;5092988;28;20203;-60
2022/02/17 12:43:28;;;;;;;8.97;2.33;;;15.10;95.00;;;;;;5092508;28;20208;-60
2022/02/17 12:45:55;;;;;;;7.03;2.07;;;15.60;95.10;;;;;;5092748;28;20207;-60
2022/02/17 12:48:22;;;;;;;11.10;2.47;;;15.80;94.50;;;;;;5092497;28;20618;-60
2022/02/17 12:50:49;;;;;;;7.93;2.57;;;15.80;93.90;;;;;;5092533;28;20208;-60